PWSweather.com
Personal Weather Stations
Station Observations
N6QIH
Larry & Sandy Wx Now Hawaii, Ewa Beach, HI 96706

Larry & Sandy Wx Now HawaiiEwa Beach, HI 96706

Lat: 21.327716, Lon: -158.028032

Elevation: 29

Station Type: Davis Pro 2 Solar

http://www.CoCoRAHS.org

High Low Average
Temperature 78.5°F25.8°C 63.1°F17.3°C 71.1°F21.7°C
Dew Point 66.4°F19.1°C 58.8°F14.9°C 62.9°F17.2°C
Winds 10.5 mph 16.9 kmh Calm Calm 3.0 mph S4.8 kmh S
Wind Gusts 16.0 mph25.7 kmh -- 5.0 mph8.0 kmh
Humidity 87% 65% 76%
Pressure 29.83 in1010.2 mb 29.76 in1007.8 mb -
Precipitation 0.00 in0.0 mm - -
Hour Temp Dew Point Humidity Winds Wind Gusts Pressure Precip Precip Rate Daily Precip Total
05:10 AM 63.7°F17.6°C 58.8°F14.9°C 84% Calm Calm 1.0 mph1.6 kmh 29.80 in1009.1 mb 0.00 in0.0 mm 0.00 in/hr0.0 mm/hr 0.00 in0.0 mm
05:20 AM 63.5°F17.5°C 58.9°F14.9°C 85% 1.4 mph N2.3 kmh N 2.0 mph3.2 kmh 29.80 in1009.1 mb 0.00 in0.0 mm 0.00 in/hr0.0 mm/hr 0.00 in0.0 mm
05:30 AM 63.5°F17.5°C 58.9°F14.9°C 85% Calm Calm -- 29.80 in1009.1 mb 0.00 in0.0 mm 0.00 in/hr0.0 mm/hr 0.00 in0.0 mm
05:40 AM 63.5°F17.5°C 58.9°F14.9°C 85% Calm Calm -- 29.80 in1009.1 mb 0.00 in0.0 mm 0.00 in/hr0.0 mm/hr 0.00 in0.0 mm
05:50 AM 63.5°F17.5°C 58.9°F14.9°C 85% Calm Calm -- 29.80 in1009.1 mb 0.00 in0.0 mm 0.00 in/hr0.0 mm/hr 0.00 in0.0 mm
06:00 AM 63.5°F17.5°C 58.9°F14.9°C 85% Calm Calm -- 29.80 in1009.1 mb 0.00 in0.0 mm 0.00 in/hr0.0 mm/hr 0.00 in0.0 mm
06:10 AM 63.4°F17.4°C 59.1°F15.1°C 86% Calm Calm -- 29.81 in1009.5 mb 0.00 in0.0 mm 0.00 in/hr0.0 mm/hr 0.00 in0.0 mm
06:20 AM 63.4°F17.4°C 59.1°F15.1°C 86% Calm Calm -- 29.81 in1009.5 mb 0.00 in0.0 mm 0.00 in/hr0.0 mm/hr 0.00 in0.0 mm
06:30 AM 63.1°F17.3°C 58.8°F14.9°C 86% Calm Calm -- 29.82 in1009.8 mb 0.00 in0.0 mm 0.00 in/hr0.0 mm/hr 0.00 in0.0 mm
06:40 AM 63.2°F17.3°C 59.3°F15.2°C 87% Calm Calm -- 29.82 in1009.8 mb 0.00 in0.0 mm 0.00 in/hr0.0 mm/hr 0.00 in0.0 mm
06:50 AM 63.2°F17.3°C 59.3°F15.2°C 87% Calm Calm -- 29.82 in1009.8 mb 0.00 in0.0 mm 0.00 in/hr0.0 mm/hr 0.00 in0.0 mm
07:00 AM 63.4°F17.4°C 59.5°F15.3°C 87% Calm Calm -- 29.82 in1009.8 mb 0.00 in0.0 mm 0.00 in/hr0.0 mm/hr 0.00 in0.0 mm
07:10 AM 63.7°F17.6°C 59.8°F15.4°C 87% 0.1 mph SE0.2 kmh SE 1.0 mph1.6 kmh 29.82 in1009.8 mb 0.00 in0.0 mm 0.00 in/hr0.0 mm/hr 0.00 in0.0 mm
07:20 AM 63.9°F17.7°C 60.0°F15.6°C 87% Calm Calm -- 29.82 in1009.8 mb 0.00 in0.0 mm 0.00 in/hr0.0 mm/hr 0.00 in0.0 mm
07:30 AM 64.2°F17.9°C 60.2°F15.7°C 87% 0.8 mph ENE1.3 kmh ENE 2.0 mph3.2 kmh 29.82 in1009.8 mb 0.00 in0.0 mm 0.00 in/hr0.0 mm/hr 0.00 in0.0 mm
07:40 AM 64.5°F18.1°C 60.2°F15.7°C 86% 0.4 mph NE0.6 kmh NE 1.0 mph1.6 kmh 29.82 in1009.8 mb 0.00 in0.0 mm 0.00 in/hr0.0 mm/hr 0.00 in0.0 mm
07:50 AM 65.0°F18.3°C 60.4°F15.8°C 85% 0.1 mph ENE0.2 kmh ENE 1.0 mph1.6 kmh 29.83 in1010.2 mb 0.00 in0.0 mm 0.00 in/hr0.0 mm/hr 0.00 in0.0 mm
08:00 AM 65.5°F18.6°C 60.5°F15.8°C 84% Calm Calm 1.0 mph1.6 kmh 29.83 in1010.2 mb 0.00 in0.0 mm 0.00 in/hr0.0 mm/hr 0.00 in0.0 mm
08:10 AM 65.6°F18.7°C 60.3°F15.7°C 83% 0.1 mph NE0.2 kmh NE 1.0 mph1.6 kmh 29.83 in1010.2 mb 0.00 in0.0 mm 0.00 in/hr0.0 mm/hr 0.00 in0.0 mm
08:20 AM 66.3°F19.1°C 61.3°F16.3°C 84% 0.1 mph NE0.2 kmh NE 1.0 mph1.6 kmh 29.83 in1010.2 mb 0.00 in0.0 mm 0.00 in/hr0.0 mm/hr 0.00 in0.0 mm
08:30 AM 67.2°F19.6°C 61.5°F16.4°C 82% 0.1 mph NE0.2 kmh NE 1.0 mph1.6 kmh 29.83 in1010.2 mb 0.00 in0.0 mm 0.00 in/hr0.0 mm/hr 0.00 in0.0 mm
08:40 AM 68.3°F20.2°C 62.2°F16.8°C 81% Calm Calm -- 29.83 in1010.2 mb 0.00 in0.0 mm 0.00 in/hr0.0 mm/hr 0.00 in0.0 mm
08:50 AM 70.3°F21.3°C 63.1°F17.3°C 78% Calm Calm 1.0 mph1.6 kmh 29.83 in1010.2 mb 0.00 in0.0 mm 0.00 in/hr0.0 mm/hr 0.00 in0.0 mm
09:00 AM 72.1°F22.3°C 63.4°F17.4°C 74% 0.1 mph NE0.2 kmh NE -- 29.83 in1010.2 mb 0.00 in0.0 mm 0.00 in/hr0.0 mm/hr 0.00 in0.0 mm
09:10 AM 73.9°F23.3°C 63.9°F17.7°C 71% Calm Calm -- 29.83 in1010.2 mb 0.00 in0.0 mm 0.00 in/hr0.0 mm/hr 0.00 in0.0 mm
09:20 AM 75.2°F24.0°C 64.8°F18.2°C 70% 0.4 mph S0.6 kmh S 4.0 mph6.4 kmh 29.83 in1010.2 mb 0.00 in0.0 mm 0.00 in/hr0.0 mm/hr 0.00 in0.0 mm
09:30 AM 75.3°F24.1°C 64.4°F18.0°C 69% 2.8 mph N4.5 kmh N 5.0 mph8.0 kmh 29.83 in1010.2 mb 0.00 in0.0 mm 0.00 in/hr0.0 mm/hr 0.00 in0.0 mm
09:40 AM 75.1°F23.9°C 64.2°F17.9°C 69% 3.3 mph W5.3 kmh W 4.0 mph6.4 kmh 29.83 in1010.2 mb 0.00 in0.0 mm 0.00 in/hr0.0 mm/hr 0.00 in0.0 mm
09:50 AM 75.8°F24.3°C 64.5°F18.1°C 68% 4.7 mph NW7.6 kmh NW 10.0 mph16.1 kmh 29.83 in1010.2 mb 0.00 in0.0 mm 0.00 in/hr0.0 mm/hr 0.00 in0.0 mm
10:00 AM 75.7°F24.3°C 64.8°F18.2°C 69% 5.7 mph W9.2 kmh W 7.0 mph11.3 kmh 29.83 in1010.2 mb 0.00 in0.0 mm 0.00 in/hr0.0 mm/hr 0.00 in0.0 mm
10:10 AM 76.7°F24.8°C 65.8°F18.8°C 69% 4.4 mph SW7.1 kmh SW 6.0 mph9.7 kmh 29.83 in1010.2 mb 0.00 in0.0 mm 0.00 in/hr0.0 mm/hr 0.00 in0.0 mm
10:20 AM 75.5°F24.2°C 64.6°F18.1°C 69% 7.0 mph N11.3 kmh N 11.0 mph17.7 kmh 29.83 in1010.2 mb 0.00 in0.0 mm 0.00 in/hr0.0 mm/hr 0.00 in0.0 mm
10:30 AM 75.6°F24.2°C 64.7°F18.2°C 69% 4.4 mph NW7.1 kmh NW 7.0 mph11.3 kmh 29.83 in1010.2 mb 0.00 in0.0 mm 0.00 in/hr0.0 mm/hr 0.00 in0.0 mm
10:40 AM 75.6°F24.2°C 65.5°F18.6°C 71% 8.4 mph W13.5 kmh W 13.0 mph20.9 kmh 29.82 in1009.8 mb 0.00 in0.0 mm 0.00 in/hr0.0 mm/hr 0.00 in0.0 mm
10:50 AM 75.8°F24.3°C 65.7°F18.7°C 71% 3.3 mph WNW5.3 kmh WNW 6.0 mph9.7 kmh 29.82 in1009.8 mb 0.00 in0.0 mm 0.00 in/hr0.0 mm/hr 0.00 in0.0 mm
11:00 AM 76.8°F24.9°C 65.0°F18.3°C 67% 7.9 mph W12.7 kmh W 11.0 mph17.7 kmh 29.82 in1009.8 mb 0.00 in0.0 mm 0.00 in/hr0.0 mm/hr 0.00 in0.0 mm
11:10 AM 77.0°F25.0°C 65.6°F18.7°C 68% 8.5 mph NW13.7 kmh NW 12.0 mph19.3 kmh 29.82 in1009.8 mb 0.00 in0.0 mm 0.00 in/hr0.0 mm/hr 0.00 in0.0 mm
11:20 AM 77.2°F25.1°C 65.4°F18.6°C 67% 6.5 mph NW10.5 kmh NW 10.0 mph16.1 kmh 29.81 in1009.5 mb 0.00 in0.0 mm 0.00 in/hr0.0 mm/hr 0.00 in0.0 mm
11:30 AM 76.2°F24.6°C 65.3°F18.5°C 69% 6.4 mph WNW10.3 kmh WNW 11.0 mph17.7 kmh 29.81 in1009.5 mb 0.00 in0.0 mm 0.00 in/hr0.0 mm/hr 0.00 in0.0 mm
11:40 AM 77.1°F25.1°C 66.2°F19.0°C 69% 8.6 mph NNW13.8 kmh NNW 11.0 mph17.7 kmh 29.80 in1009.1 mb 0.00 in0.0 mm 0.00 in/hr0.0 mm/hr 0.00 in0.0 mm
11:50 AM 76.9°F24.9°C 65.1°F18.4°C 67% 5.5 mph NW8.9 kmh NW 6.0 mph9.7 kmh 29.80 in1009.1 mb 0.00 in0.0 mm 0.00 in/hr0.0 mm/hr 0.00 in0.0 mm
12:00 PM 77.0°F25.0°C 66.0°F18.9°C 69% 8.7 mph NW14.0 kmh NW 13.0 mph20.9 kmh 29.80 in1009.1 mb 0.00 in0.0 mm 0.00 in/hr0.0 mm/hr 0.00 in0.0 mm
12:10 PM 77.6°F25.3°C 66.2°F19.0°C 68% 9.5 mph WNW15.3 kmh WNW 14.0 mph22.5 kmh 29.80 in1009.1 mb 0.00 in0.0 mm 0.00 in/hr0.0 mm/hr 0.00 in0.0 mm
12:20 PM 77.8°F25.4°C 65.5°F18.6°C 66% 8.9 mph NW14.3 kmh NW 15.0 mph24.1 kmh 29.80 in1009.1 mb 0.00 in0.0 mm 0.00 in/hr0.0 mm/hr 0.00 in0.0 mm
12:30 PM 77.6°F25.3°C 65.8°F18.8°C 67% 7.5 mph WNW12.1 kmh WNW 11.0 mph17.7 kmh 29.79 in1008.8 mb 0.00 in0.0 mm 0.00 in/hr0.0 mm/hr 0.00 in0.0 mm
12:40 PM 77.5°F25.3°C 65.7°F18.7°C 67% 8.5 mph WNW13.7 kmh WNW 12.0 mph19.3 kmh 29.79 in1008.8 mb 0.00 in0.0 mm 0.00 in/hr0.0 mm/hr 0.00 in0.0 mm
12:50 PM 78.5°F25.8°C 66.2°F19.0°C 66% 9.9 mph WNW15.9 kmh WNW 14.0 mph22.5 kmh 29.78 in1008.5 mb 0.00 in0.0 mm 0.00 in/hr0.0 mm/hr 0.00 in0.0 mm
01:00 PM 78.2°F25.7°C 65.9°F18.8°C 66% 7.5 mph WNW12.1 kmh WNW 11.0 mph17.7 kmh 29.77 in1008.1 mb 0.00 in0.0 mm 0.00 in/hr0.0 mm/hr 0.00 in0.0 mm
01:10 PM 78.0°F25.6°C 66.1°F18.9°C 67% 10.5 mph NW16.9 kmh NW 16.0 mph25.7 kmh 29.77 in1008.1 mb 0.00 in0.0 mm 0.00 in/hr0.0 mm/hr 0.00 in0.0 mm
01:20 PM 78.3°F25.7°C 66.4°F19.1°C 67% 6.5 mph NW10.5 kmh NW 15.0 mph24.1 kmh 29.77 in1008.1 mb 0.00 in0.0 mm 0.00 in/hr0.0 mm/hr 0.00 in0.0 mm
01:30 PM 78.5°F25.8°C 65.8°F18.8°C 65% 8.4 mph NW13.5 kmh NW 11.0 mph17.7 kmh 29.76 in1007.8 mb 0.00 in0.0 mm 0.00 in/hr0.0 mm/hr 0.00 in0.0 mm
01:40 PM 79.2°F26.2°C 66.4°F19.1°C 65% 8.4 mph W13.5 kmh W 13.0 mph20.9 kmh 29.75 in1007.5 mb 0.00 in0.0 mm 0.00 in/hr0.0 mm/hr 0.00 in0.0 mm
01:50 PM 78.8°F26.0°C 66.0°F18.9°C 65% 8.6 mph NW13.8 kmh NW 17.0 mph27.4 kmh 29.75 in1007.5 mb 0.00 in0.0 mm 0.00 in/hr0.0 mm/hr 0.00 in0.0 mm
02:00 PM 78.8°F26.0°C 66.5°F19.2°C 66% 9.6 mph NW15.4 kmh NW 14.0 mph22.5 kmh 29.75 in1007.5 mb 0.00 in0.0 mm 0.00 in/hr0.0 mm/hr 0.00 in0.0 mm
02:10 PM 77.9°F25.5°C 66.5°F19.2°C 68% 9.2 mph NW14.8 kmh NW 15.0 mph24.1 kmh 29.75 in1007.5 mb 0.00 in0.0 mm 0.00 in/hr0.0 mm/hr 0.00 in0.0 mm
02:20 PM 78.5°F25.8°C 66.6°F19.2°C 67% 10.6 mph WNW17.1 kmh WNW 19.0 mph30.6 kmh 29.74 in1007.1 mb 0.00 in0.0 mm 0.00 in/hr0.0 mm/hr 0.00 in0.0 mm
02:30 PM 78.5°F25.8°C 66.6°F19.2°C 67% 9.3 mph NW15.0 kmh NW 19.0 mph30.6 kmh 29.74 in1007.1 mb 0.00 in0.0 mm 0.00 in/hr0.0 mm/hr 0.00 in0.0 mm
02:40 PM 78.5°F25.8°C 67.1°F19.5°C 68% 7.4 mph WNW11.9 kmh WNW 13.0 mph20.9 kmh 29.74 in1007.1 mb 0.00 in0.0 mm 0.00 in/hr0.0 mm/hr 0.00 in0.0 mm
02:50 PM 78.8°F26.0°C 67.4°F19.7°C 68% 10.3 mph WNW16.6 kmh WNW 14.0 mph22.5 kmh 29.74 in1007.1 mb 0.00 in0.0 mm 0.00 in/hr0.0 mm/hr 0.00 in0.0 mm
03:00 PM 78.5°F25.8°C 67.5°F19.7°C 69% 8.5 mph W13.7 kmh W 15.0 mph24.1 kmh 29.74 in1007.1 mb 0.00 in0.0 mm 0.00 in/hr0.0 mm/hr 0.00 in0.0 mm
03:10 PM 78.4°F25.8°C 67.0°F19.4°C 68% 6.4 mph WNW10.3 kmh WNW 15.0 mph24.1 kmh 29.74 in1007.1 mb 0.00 in0.0 mm 0.00 in/hr0.0 mm/hr 0.00 in0.0 mm
03:20 PM 78.6°F25.9°C 67.1°F19.5°C 68% 8.3 mph NNW13.4 kmh NNW 14.0 mph22.5 kmh 29.74 in1007.1 mb 0.00 in0.0 mm 0.00 in/hr0.0 mm/hr 0.00 in0.0 mm
03:30 PM 77.6°F25.3°C 66.2°F19.0°C 68% 8.8 mph W14.2 kmh W 11.0 mph17.7 kmh 29.73 in1006.8 mb 0.00 in0.0 mm 0.00 in/hr0.0 mm/hr 0.00 in0.0 mm
03:40 PM 77.6°F25.3°C 66.6°F19.2°C 69% 8.9 mph NNW14.3 kmh NNW 11.0 mph17.7 kmh 29.73 in1006.8 mb 0.00 in0.0 mm 0.00 in/hr0.0 mm/hr 0.00 in0.0 mm
03:50 PM 77.9°F25.5°C 66.9°F19.4°C 69% 8.3 mph WNW13.4 kmh WNW 10.0 mph16.1 kmh 29.73 in1006.8 mb 0.00 in0.0 mm 0.00 in/hr0.0 mm/hr 0.00 in0.0 mm
04:00 PM 77.9°F25.5°C 66.5°F19.2°C 68% 10.2 mph NW16.4 kmh NW 13.0 mph20.9 kmh 29.73 in1006.8 mb 0.00 in0.0 mm 0.00 in/hr0.0 mm/hr 0.00 in0.0 mm
04:10 PM 78.0°F25.6°C 67.4°F19.7°C 70% 6.7 mph NW10.8 kmh NW 13.0 mph20.9 kmh 29.73 in1006.8 mb 0.00 in0.0 mm 0.00 in/hr0.0 mm/hr 0.00 in0.0 mm
04:20 PM 78.1°F25.6°C 66.7°F19.3°C 68% 10.4 mph WNW16.7 kmh WNW 16.0 mph25.7 kmh 29.73 in1006.8 mb 0.00 in0.0 mm 0.00 in/hr0.0 mm/hr 0.00 in0.0 mm
04:30 PM 77.7°F25.4°C 67.1°F19.5°C 70% 7.3 mph W11.7 kmh W 14.0 mph22.5 kmh 29.73 in1006.8 mb 0.00 in0.0 mm 0.00 in/hr0.0 mm/hr 0.00 in0.0 mm
04:40 PM 77.4°F25.2°C 66.4°F19.1°C 69% 11.0 mph W17.7 kmh W 16.0 mph25.7 kmh 29.74 in1007.1 mb 0.00 in0.0 mm 0.00 in/hr0.0 mm/hr 0.00 in0.0 mm
04:50 PM 77.2°F25.1°C 66.7°F19.3°C 70% 6.1 mph WNW9.8 kmh WNW 9.0 mph14.5 kmh 29.74 in1007.1 mb 0.00 in0.0 mm 0.00 in/hr0.0 mm/hr 0.00 in0.0 mm
05:00 PM 77.0°F25.0°C 66.5°F19.2°C 70% 8.1 mph NW13.0 kmh NW 16.0 mph25.7 kmh 29.74 in1007.1 mb 0.00 in0.0 mm 0.00 in/hr0.0 mm/hr 0.00 in0.0 mm
05:10 PM 77.2°F25.1°C 66.7°F19.3°C 70% 6.9 mph WNW11.1 kmh WNW 10.0 mph16.1 kmh 29.74 in1007.1 mb 0.00 in0.0 mm 0.00 in/hr0.0 mm/hr 0.00 in0.0 mm
05:20 PM 76.7°F24.8°C 66.6°F19.2°C 71% 6.7 mph NW10.8 kmh NW 9.0 mph14.5 kmh 29.74 in1007.1 mb 0.00 in0.0 mm 0.00 in/hr0.0 mm/hr 0.00 in0.0 mm
05:30 PM 75.8°F24.3°C 66.9°F19.4°C 74% 7.9 mph NNW12.7 kmh NNW 12.0 mph19.3 kmh 29.74 in1007.1 mb 0.00 in0.0 mm 0.00 in/hr0.0 mm/hr 0.00 in0.0 mm
05:40 PM 75.3°F24.1°C 66.8°F19.3°C 75% 6.9 mph WNW11.1 kmh WNW 11.0 mph17.7 kmh 29.74 in1007.1 mb 0.00 in0.0 mm 0.00 in/hr0.0 mm/hr 0.00 in0.0 mm
05:50 PM 75.1°F23.9°C 67.0°F19.4°C 76% 5.7 mph NW9.2 kmh NW 12.0 mph19.3 kmh 29.75 in1007.5 mb 0.00 in0.0 mm 0.00 in/hr0.0 mm/hr 0.00 in0.0 mm
06:00 PM 75.1°F23.9°C 67.0°F19.4°C 76% 7.5 mph WNW12.1 kmh WNW 12.0 mph19.3 kmh 29.75 in1007.5 mb 0.00 in0.0 mm 0.00 in/hr0.0 mm/hr 0.00 in0.0 mm
06:10 PM 75.1°F23.9°C 67.0°F19.4°C 76% 8.4 mph NW13.5 kmh NW 15.0 mph24.1 kmh 29.75 in1007.5 mb 0.00 in0.0 mm 0.00 in/hr0.0 mm/hr 0.00 in0.0 mm
06:20 PM 74.7°F23.7°C 67.0°F19.4°C 77% 5.9 mph WNW9.5 kmh WNW 6.0 mph9.7 kmh 29.75 in1007.5 mb 0.00 in0.0 mm 0.00 in/hr0.0 mm/hr 0.00 in0.0 mm
06:30 PM 74.6°F23.7°C 67.3°F19.6°C 78% 5.0 mph NW8.0 kmh NW 7.0 mph11.3 kmh 29.75 in1007.5 mb 0.00 in0.0 mm 0.00 in/hr0.0 mm/hr 0.00 in0.0 mm
06:40 PM 74.4°F23.6°C 67.1°F19.5°C 78% 4.4 mph NW7.1 kmh NW 7.0 mph11.3 kmh 29.76 in1007.8 mb 0.00 in0.0 mm 0.00 in/hr0.0 mm/hr 0.00 in0.0 mm
06:50 PM 74.2°F23.4°C 67.6°F19.8°C 80% 4.7 mph NW7.6 kmh NW 9.0 mph14.5 kmh 29.76 in1007.8 mb 0.00 in0.0 mm 0.00 in/hr0.0 mm/hr 0.00 in0.0 mm
07:00 PM 73.5°F23.1°C 68.4°F20.2°C 84% 2.2 mph NNW3.5 kmh NNW 4.0 mph6.4 kmh 29.76 in1007.8 mb 0.00 in0.0 mm 0.00 in/hr0.0 mm/hr 0.00 in0.0 mm
07:10 PM 73.0°F22.8°C 67.9°F19.9°C 84% 1.2 mph NW1.9 kmh NW 2.0 mph3.2 kmh 29.76 in1007.8 mb 0.00 in0.0 mm 0.00 in/hr0.0 mm/hr 0.00 in0.0 mm
07:20 PM 72.5°F22.5°C 66.7°F19.3°C 82% 3.7 mph NW6.0 kmh NW 6.0 mph9.7 kmh 29.77 in1008.1 mb 0.00 in0.0 mm 0.00 in/hr0.0 mm/hr 0.00 in0.0 mm
07:30 PM 72.7°F22.6°C 66.6°F19.2°C 81% 4.1 mph NW6.6 kmh NW 6.0 mph9.7 kmh 29.77 in1008.1 mb 0.00 in0.0 mm 0.00 in/hr0.0 mm/hr 0.00 in0.0 mm
07:40 PM 72.8°F22.7°C 67.0°F19.4°C 82% 3.7 mph NW6.0 kmh NW 6.0 mph9.7 kmh 29.77 in1008.1 mb 0.00 in0.0 mm 0.00 in/hr0.0 mm/hr 0.00 in0.0 mm
07:50 PM 72.7°F22.6°C 67.2°F19.6°C 83% 1.2 mph NW1.9 kmh NW 4.0 mph6.4 kmh 29.77 in1008.1 mb 0.00 in0.0 mm 0.00 in/hr0.0 mm/hr 0.00 in0.0 mm
08:00 PM 72.3°F22.4°C 67.5°F19.7°C 85% 0.7 mph WNW1.1 kmh WNW 3.0 mph4.8 kmh 29.77 in1008.1 mb 0.00 in0.0 mm 0.00 in/hr0.0 mm/hr 0.00 in0.0 mm
08:10 PM 72.1°F22.3°C 67.7°F19.8°C 86% 2.7 mph NW4.3 kmh NW 5.0 mph8.0 kmh 29.78 in1008.5 mb 0.00 in0.0 mm 0.00 in/hr0.0 mm/hr 0.00 in0.0 mm
08:20 PM 72.3°F22.4°C 67.5°F19.7°C 85% 0.6 mph NW1.0 kmh NW 1.0 mph1.6 kmh 29.78 in1008.5 mb 0.00 in0.0 mm 0.00 in/hr0.0 mm/hr 0.00 in0.0 mm
08:30 PM 72.1°F22.3°C 67.3°F19.6°C 85% Calm Calm -- 29.79 in1008.8 mb 0.00 in0.0 mm 0.00 in/hr0.0 mm/hr 0.00 in0.0 mm
08:40 PM 72.1°F22.3°C 67.0°F19.4°C 84% Calm Calm -- 29.79 in1008.8 mb 0.00 in0.0 mm 0.00 in/hr0.0 mm/hr 0.00 in0.0 mm
08:50 PM 72.1°F22.3°C 67.0°F19.4°C 84% Calm Calm -- 29.79 in1008.8 mb 0.00 in0.0 mm 0.00 in/hr0.0 mm/hr 0.00 in0.0 mm
09:00 PM 72.1°F22.3°C 67.3°F19.6°C 85% 0.4 mph NNW0.6 kmh NNW 4.0 mph6.4 kmh 29.79 in1008.8 mb 0.00 in0.0 mm 0.00 in/hr0.0 mm/hr 0.00 in0.0 mm
09:10 PM 72.3°F22.4°C 67.5°F19.7°C 85% Calm Calm -- 29.79 in1008.8 mb 0.00 in0.0 mm 0.00 in/hr0.0 mm/hr 0.00 in0.0 mm
09:20 PM 72.3°F22.4°C 67.5°F19.7°C 85% 0.1 mph N0.2 kmh N -- 29.79 in1008.8 mb 0.00 in0.0 mm 0.00 in/hr0.0 mm/hr 0.00 in0.0 mm
09:30 PM 72.0°F22.2°C 66.9°F19.4°C 84% Calm Calm -- 29.79 in1008.8 mb 0.00 in0.0 mm 0.00 in/hr0.0 mm/hr 0.00 in0.0 mm
09:40 PM 72.1°F22.3°C 66.3°F19.1°C 82% Calm Calm -- 29.79 in1008.8 mb 0.00 in0.0 mm 0.00 in/hr0.0 mm/hr 0.00 in0.0 mm
09:50 PM 72.0°F22.2°C 66.5°F19.2°C 83% Calm Calm -- 29.79 in1008.8 mb 0.00 in0.0 mm 0.00 in/hr0.0 mm/hr 0.00 in0.0 mm
10:00 PM 71.5°F21.9°C 66.4°F19.1°C 84% Calm Calm -- 29.79 in1008.8 mb 0.00 in0.0 mm 0.00 in/hr0.0 mm/hr 0.00 in0.0 mm
10:10 PM 70.9°F21.6°C 66.2°F19.0°C 85% Calm Calm -- 29.79 in1008.8 mb 0.00 in0.0 mm 0.00 in/hr0.0 mm/hr 0.00 in0.0 mm
10:20 PM 70.8°F21.6°C 66.4°F19.1°C 86% Calm Calm -- 29.79 in1008.8 mb 0.00 in0.0 mm 0.00 in/hr0.0 mm/hr 0.00 in0.0 mm
10:30 PM 70.6°F21.4°C 66.5°F19.2°C 87% Calm Calm -- 29.79 in1008.8 mb 0.00 in0.0 mm 0.00 in/hr0.0 mm/hr 0.00 in0.0 mm
10:40 PM 70.7°F21.5°C 66.6°F19.2°C 87% Calm Calm -- 29.79 in1008.8 mb 0.00 in0.0 mm 0.00 in/hr0.0 mm/hr 0.00 in0.0 mm
10:50 PM 71.1°F21.7°C 67.4°F19.7°C 88% Calm Calm -- 29.79 in1008.8 mb 0.00 in0.0 mm 0.00 in/hr0.0 mm/hr 0.00 in0.0 mm
11:00 PM 71.6°F22.0°C 67.5°F19.7°C 87% Calm Calm -- 29.79 in1008.8 mb 0.00 in0.0 mm 0.00 in/hr0.0 mm/hr 0.00 in0.0 mm
11:10 PM 71.4°F21.9°C 67.4°F19.7°C 87% Calm Calm -- 29.79 in1008.8 mb 0.00 in0.0 mm 0.00 in/hr0.0 mm/hr 0.00 in0.0 mm
11:20 PM 70.6°F21.4°C 65.9°F18.8°C 85% 0.1 mph N0.2 kmh N 1.0 mph1.6 kmh 29.79 in1008.8 mb 0.00 in0.0 mm 0.00 in/hr0.0 mm/hr 0.00 in0.0 mm
11:30 PM 69.9°F21.1°C 65.2°F18.4°C 85% 0.2 mph N0.3 kmh N 1.0 mph1.6 kmh 29.79 in1008.8 mb 0.00 in0.0 mm 0.00 in/hr0.0 mm/hr 0.00 in0.0 mm
11:40 PM 69.8°F21.0°C 65.1°F18.4°C 85% Calm Calm -- 29.78 in1008.5 mb 0.00 in0.0 mm 0.00 in/hr0.0 mm/hr 0.00 in0.0 mm
11:50 PM 69.8°F21.0°C 65.1°F18.4°C 85% Calm Calm 2.0 mph3.2 kmh 29.78 in1008.5 mb 0.00 in0.0 mm 0.00 in/hr0.0 mm/hr 0.00 in0.0 mm